Latest Weather Observations for Hillarys Point Boat Harbour

IDW60801

Issued at 5:32 pm WST Sunday 30 August 2015 (issued every 30 minutes, with the page automatically refreshed every 10 minutes)

About weather observations | Map of weather stations | Latest weather observations for WA | Other Formats
Station Details ID: 009265 Name: HILLARYS BOAT HARBOUR NTC AWS Lat: -31.83 Lon: 115.74 Height: 0.0 m
Data from the previous 72 hours. | See also: Recent months for locations in Western Australia
Date/Time
WST
Temp
°C
App
Temp
°C
Dew
Point
Rel
Hum
%
Delta-T
°C
Wind Press
QNH
hPa
Press
MSL
hPa
Rain
since 9 am
mm
Dir
 
Spd
km/h
Gust
km/h
Spd
kts
Gust
kts
30/05:30pm 16.1 - - - - SW 9 15 5 8 1020.0 1020.0 -
30/05:00pm 16.4 - - - - SW 9 17 5 9 1019.8 1019.8 -
30/04:30pm 16.6 - - - - SW 11 19 6 10 1019.5 1019.5 -
30/04:00pm 16.5 - - - - SSW 7 13 4 7 1019.7 1019.7 -
30/03:30pm 16.4 - - - - SW 11 19 6 10 1019.7 1019.7 -
30/03:00pm 16.7 - - - - SSW 9 17 5 9 1019.5 1019.5 -
30/02:30pm 16.6 - - - - SSW 7 13 4 7 1019.3 1019.3 -
30/02:00pm 16.6 - - - - SSW 11 17 6 9 1019.3 1019.3 -
30/01:30pm 16.6 - - - - SSW 9 19 5 10 1019.1 1019.1 -
30/01:00pm 16.7 - - - - SSW 9 20 5 11 1019.3 1019.3 -
30/12:30pm 16.8 - - - - SSW 9 20 5 11 1019.5 1019.5 -
30/12:00pm 17.0 - - - - SSW 11 20 6 11 1019.7 1019.7 -
30/11:30am 16.7 - - - - SSW 11 22 6 12 1019.8 1019.8 -
30/11:00am 16.7 - - - - SSW 11 28 6 15 1019.8 1019.8 -
30/10:30am 16.8 - - - - SSW 17 26 9 14 1019.6 1019.6 -
30/10:00am 17.0 - - - - SW 20 32 11 17 1019.5 1019.5 -
30/09:30am 16.8 - - - - SW 15 28 8 15 1019.4 1019.4 -
30/09:00am 16.7 - - - - SW 19 28 10 15 1019.1 1019.1 -
30/08:30am 16.6 - - - - SW 22 33 12 18 1018.8 1018.8 -
30/08:00am 16.7 - - - - SW 20 28 11 15 1018.3 1018.3 -
30/07:30am 16.7 - - - - SW 22 33 12 18 1017.7 1017.7 -
30/07:00am 16.4 - - - - SW 20 33 11 18 1017.3 1017.3 -
30/06:30am 16.5 - - - - SW 17 28 9 15 1016.6 1016.6 -
30/06:00am 16.2 - - - - SSW 17 30 9 16 1016.1 1016.1 -
30/05:30am 16.3 - - - - SW 26 35 14 19 1015.9 1015.9 -
30/05:00am 16.5 - - - - SW 26 35 14 19 1015.5 1015.5 -
30/04:30am 16.5 - - - - SW 26 41 14 22 1015.2 1015.2 -
30/04:00am 17.1 - - - - SW 26 35 14 19 1014.9 1014.9 -
30/03:30am 17.4 - - - - SW 28 39 15 21 1014.9 1014.9 -
30/03:00am 17.5 - - - - WSW 26 35 14 19 1014.8 1014.8 -
30/02:30am 17.1 - - - - WSW 20 30 11 16 1014.6 1014.6 -
30/02:00am 16.6 - - - - WSW 11 19 6 10 1014.7 1014.7 -
30/01:30am 16.0 - - - - WSW 15 20 8 11 1014.7 1014.7 -
30/01:00am 16.6 - - - - WSW 19 28 10 15 1014.5 1014.5 -
30/12:30am 16.8 - - - - WNW 4 7 2 4 1014.2 1014.2 -
30/12:00am 16.3 - - - - W 13 20 7 11 1014.2 1014.2 -
 
Date/Time
WST
Temp
°C
App
Temp
°C
Dew
Point
Rel
Hum
%
Delta-T
°C
Wind Press
QNH
hPa
Press
MSL
hPa
Rain
since 9 am
mm
Dir
 
Spd
km/h
Gust
km/h
Spd
kts
Gust
kts
29/11:30pm 16.7 - - - - WSW 11 17 6 9 1014.2 1014.2 -
29/11:00pm 15.9 - - - - SW 17 24 9 13 1014.3 1014.3 -
29/10:30pm 16.9 - - - - WSW 22 37 12 20 1014.0 1014.0 -
29/10:00pm 16.3 - - - - WSW 17 24 9 13 1014.1 1014.1 -
29/09:30pm 15.9 - - - - WNW 19 32 10 17 1014.1 1014.1 -
29/09:09pm 16.0 - - - - WNW 28 48 15 26 1013.7 1013.7 -
29/09:00pm 15.9 - - - - WNW 19 37 10 20 1013.6 1013.6 -
29/08:30pm 17.9 - - - - N 13 22 7 12 1013.2 1013.2 -
29/08:00pm 18.3 - - - - NNW 13 20 7 11 1013.0 1013.0 -
29/07:30pm 18.4 - - - - NNW 11 20 6 11 1012.8 1012.8 -
29/07:00pm 18.3 - - - - NNW 11 19 6 10 1012.7 1012.7 -
29/06:30pm 18.2 - - - - NW 9 15 5 8 1012.4 1012.4 -
29/06:00pm 18.4 - - - - NW 11 17 6 9 1012.2 1012.2 -
29/05:30pm 18.7 - - - - NW 11 20 6 11 1012.0 1012.0 -
29/05:00pm 18.7 - - - - WNW 9 19 5 10 1011.9 1011.9 -
29/04:30pm 19.1 - - - - WNW 11 17 6 9 1011.8 1011.8 -
29/04:00pm 19.4 - - - - WNW 11 19 6 10 1011.8 1011.8 -
29/03:30pm 19.3 - - - - WNW 11 22 6 12 1011.7 1011.7 -
29/03:00pm 19.2 - - - - WNW 11 20 6 11 1011.7 1011.7 -
29/02:30pm 19.2 - - - - NW 13 24 7 13 1011.7 1011.7 -
29/02:00pm 18.4 - - - - NNW 13 20 7 11 1011.6 1011.6 -
29/01:30pm 17.7 - - - - NNW 22 39 12 21 1011.8 1011.8 -
29/01:00pm 17.9 - - - - NNW 19 32 10 17 1012.0 1012.0 -
29/12:30pm 18.6 - - - - NNW 20 32 11 17 1012.1 1012.1 -
29/12:00pm 18.3 - - - - NNW 20 35 11 19 1012.4 1012.4 -
29/11:30am 18.1 - - - - NNW 15 28 8 15 1012.7 1012.7 -
29/11:00am 18.7 - - - - NNW 15 28 8 15 1012.7 1012.7 -
29/10:30am 19.3 - - - - N 19 28 10 15 1012.7 1012.7 -
29/10:00am 18.8 - - - - N 15 24 8 13 1012.9 1012.9 -
29/09:30am 17.5 - - - - NNE 15 24 8 13 1013.3 1013.3 -
29/09:00am 16.4 - - - - NNE 13 24 7 13 1013.5 1013.5 -
29/08:30am 15.4 - - - - NNE 13 24 7 13 1013.4 1013.4 -
29/08:00am 14.5 - - - - NNE 15 26 8 14 1013.1 1013.1 -
29/07:30am 14.0 - - - - NNE 13 20 7 11 1013.2 1013.2 -
29/07:00am 13.9 - - - - NNE 13 22 7 12 1012.9 1012.9 -
29/06:30am 14.3 - - - - NNE 13 20 7 11 1012.6 1012.6 -
29/06:00am 13.8 - - - - NNE 11 20 6 11 1012.4 1012.4 -
29/05:30am 14.0 - - - - NNE 11 19 6 10 1012.3 1012.3 -
29/05:00am 13.9 - - - - NNE 11 17 6 9 1012.3 1012.3 -
29/04:30am 13.9 - - - - NE 9 17 5 9 1012.4 1012.4 -
29/04:00am 14.3 - - - - NE 9 19 5 10 1012.5 1012.5 -
29/03:30am 14.4 - - - - NE 9 13 5 7 1012.8 1012.8 -
29/03:00am 14.9 - - - - NE 9 15 5 8 1013.0 1013.0 -
29/02:30am 14.9 - - - - NE 9 13 5 7 1013.1 1013.1 -
29/02:00am 15.4 - - - - NE 7 13 4 7 1013.4 1013.4 -
29/01:30am 15.7 - - - - NNE 7 13 4 7 1013.8 1013.8 -
29/01:00am 15.9 - - - - NNE 6 11 3 6 1014.0 1014.0 -
29/12:30am 16.3 - - - - NNE 7 11 4 6 1014.1 1014.1 -
29/12:00am 16.4 - - - - NNE 7 13 4 7 1014.4 1014.4 -
 
Date/Time
WST
Temp
°C
App
Temp
°C
Dew
Point
Rel
Hum
%
Delta-T
°C
Wind Press
QNH
hPa
Press
MSL
hPa
Rain
since 9 am
mm
Dir
 
Spd
km/h
Gust
km/h
Spd
kts
Gust
kts
28/11:30pm 16.6 - - - - NNE 7 9 4 5 1014.5 1014.5 -
28/11:00pm 16.9 - - - - NNE 7 13 4 7 1015.0 1015.0 -
28/10:30pm 17.1 - - - - NNE 7 13 4 7 1015.3 1015.3 -
28/10:00pm 17.3 - - - - NNE 7 11 4 6 1015.4 1015.4 -
28/09:30pm 17.4 - - - - NNE 6 9 3 5 1015.6 1015.6 -
28/09:00pm 17.5 - - - - NE 6 9 3 5 1015.7 1015.7 -
28/08:30pm 17.5 - - - - NNE 4 7 2 4 1015.6 1015.6 -
28/08:00pm 17.3 - - - - NNE 4 6 2 3 1015.3 1015.3 -
28/07:30pm 17.7 - - - - N 6 11 3 6 1015.2 1015.2 -
28/07:00pm 17.7 - - - - N 4 6 2 3 1015.0 1015.0 -
28/06:30pm 17.7 - - - - N 2 6 1 3 1014.7 1014.7 -
28/06:00pm 17.8 - - - - N 4 6 2 3 1014.6 1014.6 -
28/05:30pm 17.7 - - - - WNW 2 6 1 3 1014.3 1014.3 -
28/05:00pm 17.8 - - - - W 4 7 2 4 1014.3 1014.3 -
28/04:30pm 18.1 - - - - NW 7 11 4 6 1014.2 1014.2 -
28/04:00pm 19.2 - - - - W 2 4 1 2 1013.9 1013.9 -
28/03:30pm 18.8 - - - - NW 6 7 3 4 1014.1 1014.1 -
28/03:00pm 19.0 - - - - NW 7 17 4 9 1014.1 1014.1 -
28/02:30pm 18.4 - - - - NNW 11 22 6 12 1014.0 1014.0 -
28/02:00pm 18.5 - - - - NNW 15 24 8 13 1014.2 1014.2 -
28/01:30pm 18.7 - - - - NW 13 22 7 12 1014.3 1014.3 -
28/01:00pm 18.6 - - - - NW 13 24 7 13 1014.6 1014.6 -
28/12:30pm 18.5 - - - - NNW 15 28 8 15 1014.8 1014.8 -
28/12:00pm 17.8 - - - - NNW 13 24 7 13 1015.4 1015.4 -
28/11:30am 17.9 - - - - NNW 11 20 6 11 1015.4 1015.4 -
28/11:00am 17.4 - - - - WNW 7 13 4 7 1015.6 1015.6 -
28/10:30am 17.1 - - - - NW 6 11 3 6 1015.7 1015.7 -
28/10:00am 18.5 - - - - N 13 22 7 12 1015.6 1015.6 -
28/09:30am 18.4 - - - - N 9 17 5 9 1015.7 1015.7 -
28/09:00am 16.5 - - - - NNE 7 13 4 7 1015.6 1015.6 -
28/08:30am 15.9 - - - - NNE 9 17 5 9 1015.4 1015.4 -
28/08:00am 15.2 - - - - NNE 11 19 6 10 1015.2 1015.2 -
28/07:30am 14.0 - - - - NNE 11 19 6 10 1015.0 1015.0 -
28/07:00am 13.6 - - - - NE 9 15 5 8 1014.8 1014.8 -
28/06:30am 13.5 - - - - NE 9 13 5 7 1014.7 1014.7 -
28/06:00am 13.3 - - - - NNE 9 13 5 7 1014.7 1014.7 -
28/05:30am 13.2 - - - - NE 6 11 3 6 1014.5 1014.5 -
28/05:00am 13.5 - - - - NE 7 11 4 6 1014.5 1014.5 -
28/04:30am 13.7 - - - - NNE 7 11 4 6 1014.4 1014.4 -
28/04:00am 13.6 - - - - NNE 9 13 5 7 1014.2 1014.2 -
28/03:30am 13.6 - - - - NNE 9 13 5 7 1014.0 1014.0 -
28/03:00am 13.9 - - - - NNE 7 11 4 6 1014.3 1014.3 -
28/02:30am 14.2 - - - - NNE 7 11 4 6 1014.4 1014.4 -
28/02:00am 14.5 - - - - NNE 9 17 5 9 1014.4 1014.4 -
28/01:30am 14.9 - - - - NNE 9 15 5 8 1014.4 1014.4 -
28/01:00am 15.3 - - - - NNE 9 15 5 8 1014.1 1014.1 -
28/12:30am 16.0 - - - - NNE 9 13 5 7 1014.2 1014.2 -
28/12:00am 16.2 - - - - NNE 9 13 5 7 1014.2 1014.2 -
 
Date/Time
WST
Temp
°C
App
Temp
°C
Dew
Point
Rel
Hum
%
Delta-T
°C
Wind Press
QNH
hPa
Press
MSL
hPa
Rain
since 9 am
mm
Dir
 
Spd
km/h
Gust
km/h
Spd
kts
Gust
kts
27/11:30pm 16.6 - - - - NNE 9 15 5 8 1014.3 1014.3 -
27/11:00pm 16.4 - - - - NNE 9 15 5 8 1014.3 1014.3 -
27/10:30pm 16.7 - - - - NNE 9 11 5 6 1014.5 1014.5 -
27/10:00pm 16.8 - - - - N 9 15 5 8 1014.5 1014.5 -
27/09:30pm 17.2 - - - - N 7 11 4 6 1014.5 1014.5 -
27/09:00pm 17.5 - - - - N 9 17 5 9 1014.6 1014.6 -
27/08:30pm 17.8 - - - - N 9 15 5 8 1014.6 1014.6 -
27/08:00pm 18.5 - - - - N 7 13 4 7 1014.4 1014.4 -
27/07:30pm 18.4 - - - - NNE 6 9 3 5 1014.2 1014.2 -
27/07:00pm 18.4 - - - - N 4 6 2 3 1013.8 1013.8 -
27/06:30pm 18.6 - - - - N 2 2 1 1 1013.5 1013.5 -
27/06:00pm 18.8 - - - - NNW 2 2 1 1 1013.4 1013.4 -

Other Formats:

Comma delimited format used in spreadsheet applications
http://www.bom.gov.au/fwo/IDW60801/IDW60801.95605.axf

JavaScript Object Notation format (JSON) in row-major order
http://www.bom.gov.au/fwo/IDW60801/IDW60801.95605.json